createdAt,value
2023-03-31T00:01:10.046Z,13.69
2023-03-31T00:03:44.742Z,13.56
2023-03-31T00:06:19.149Z,13.54
2023-03-31T00:08:52.612Z,13.44
2023-03-31T00:11:23.335Z,13.22
2023-03-31T00:13:51.225Z,13.38
2023-03-31T00:16:19.544Z,13.38
2023-03-31T00:18:47.873Z,13.40
2023-03-31T00:21:25.405Z,13.49
2023-03-31T00:23:55.640Z,13.43
2023-03-31T00:26:24.179Z,13.49
2023-03-31T00:28:53.551Z,13.44
2023-03-31T00:31:22.852Z,13.45
2023-03-31T00:33:51.282Z,13.53
2023-03-31T00:36:27.381Z,13.53
2023-03-31T00:39:02.725Z,13.61
2023-03-31T00:41:30.948Z,13.38
2023-03-31T00:44:24.807Z,13.19
2023-03-31T00:46:58.805Z,13.09
2023-03-31T00:49:34.486Z,13.11
2023-03-31T00:52:11.062Z,13.15
2023-03-31T00:54:40.940Z,13.14
2023-03-31T00:57:10.425Z,13.20
2023-03-31T00:59:43.217Z,13.23
2023-03-31T01:02:14.328Z,13.10
2023-03-31T01:04:47.365Z,13.14
2023-03-31T01:07:30.648Z,12.97
2023-03-31T01:10:01.933Z,13.16
2023-03-31T01:12:32.291Z,13.08
2023-03-31T01:15:01.821Z,13.05
2023-03-31T01:17:30.752Z,12.84
2023-03-31T01:20:02.059Z,12.89
2023-03-31T01:23:16.480Z,12.84
2023-03-31T01:26:03.487Z,12.96
2023-03-31T01:28:49.751Z,12.98
2023-03-31T01:31:40.541Z,12.96
2023-03-31T01:34:34.889Z,13.00
2023-03-31T01:37:16.160Z,12.98
2023-03-31T01:40:24.196Z,12.94
2023-03-31T01:43:08.013Z,12.93
2023-03-31T01:45:45.678Z,12.89
2023-03-31T01:48:26.989Z,12.85
2023-03-31T01:51:02.339Z,12.80
2023-03-31T01:54:11.898Z,12.76
2023-03-31T01:56:46.255Z,12.84
2023-03-31T01:59:27.413Z,12.88
2023-03-31T02:02:21.131Z,12.88
2023-03-31T02:04:54.152Z,12.91
2023-03-31T02:07:36.658Z,12.98
2023-03-31T02:10:09.458Z,12.90
2023-03-31T02:12:41.184Z,12.90
2023-03-31T02:15:14.857Z,12.81
2023-03-31T02:17:46.423Z,12.72
2023-03-31T02:20:18.502Z,12.59
2023-03-31T02:22:51.148Z,12.58
2023-03-31T02:25:23.598Z,12.62
2023-03-31T02:28:08.855Z,12.55
2023-03-31T02:30:54.366Z,12.50
2023-03-31T02:33:22.414Z,12.45
2023-03-31T02:35:50.725Z,12.49
2023-03-31T02:38:18.789Z,12.47
2023-03-31T02:40:46.971Z,12.48
2023-03-31T02:43:14.988Z,12.56
2023-03-31T02:45:46.001Z,12.49
2023-03-31T02:48:19.479Z,12.60
2023-03-31T02:51:07.806Z,12.54
2023-03-31T02:53:36.840Z,12.47
2023-03-31T02:56:36.660Z,12.42
2023-03-31T02:59:25.264Z,12.49
2023-03-31T03:02:08.637Z,12.55
2023-03-31T03:04:45.870Z,12.60
2023-03-31T03:07:56.121Z,12.69
2023-03-31T03:11:02.630Z,12.65
2023-03-31T03:14:15.991Z,12.56
2023-03-31T03:16:49.295Z,12.66
2023-03-31T03:19:24.029Z,12.70
2023-03-31T03:21:51.865Z,12.61
2023-03-31T03:24:19.932Z,12.54
2023-03-31T03:26:48.320Z,12.73
2023-03-31T03:29:16.182Z,12.84
2023-03-31T03:31:44.145Z,12.69
2023-03-31T03:34:12.848Z,12.81
2023-03-31T03:36:40.944Z,12.75
2023-03-31T03:39:08.832Z,12.86
2023-03-31T03:41:36.936Z,12.83
2023-03-31T03:44:05.493Z,12.85
2023-03-31T03:46:33.482Z,12.86
2023-03-31T03:49:01.514Z,12.79
2023-03-31T03:51:29.472Z,12.80
2023-03-31T03:53:57.333Z,12.93
2023-03-31T03:56:26.601Z,13.05
2023-03-31T03:58:54.673Z,12.96
2023-03-31T04:01:22.859Z,13.02
2023-03-31T04:03:51.008Z,13.07
2023-03-31T04:06:19.060Z,13.04
2023-03-31T04:08:47.189Z,13.01
2023-03-31T04:11:19.982Z,13.00
2023-03-31T04:13:48.273Z,12.98
2023-03-31T04:16:17.036Z,13.00
2023-03-31T04:18:45.321Z,12.91
2023-03-31T04:21:23.332Z,12.96
2023-03-31T04:24:01.972Z,13.01
2023-03-31T04:26:43.569Z,13.10
2023-03-31T04:29:22.709Z,13.14
2023-03-31T04:31:53.021Z,13.12
2023-03-31T04:34:22.394Z,13.18
2023-03-31T04:36:50.331Z,13.14
2023-03-31T04:39:30.917Z,13.24
2023-03-31T04:42:00.316Z,13.09
2023-03-31T04:44:28.536Z,13.07
2023-03-31T04:46:59.252Z,13.10
2023-03-31T04:49:28.615Z,13.10
2023-03-31T04:51:56.451Z,13.01
2023-03-31T04:54:24.294Z,13.05
2023-03-31T04:56:52.212Z,13.03
2023-03-31T04:59:20.055Z,13.12
2023-03-31T05:01:48.337Z,13.14
2023-03-31T05:04:16.205Z,13.09
2023-03-31T05:06:43.967Z,13.15
2023-03-31T05:09:11.812Z,13.20
2023-03-31T05:11:39.876Z,13.03
2023-03-31T05:14:07.832Z,13.10
2023-03-31T05:16:36.215Z,12.97
2023-03-31T05:19:04.192Z,13.09
2023-03-31T05:21:32.126Z,13.19
2023-03-31T05:24:00.384Z,13.13
2023-03-31T05:26:28.184Z,13.08
2023-03-31T05:28:56.017Z,13.02
2023-03-31T05:31:24.137Z,12.87
2023-03-31T05:33:52.116Z,12.79
2023-03-31T05:36:20.133Z,12.92
2023-03-31T05:38:48.056Z,12.85
2023-03-31T05:41:17.175Z,12.72
2023-03-31T05:43:45.153Z,12.73
2023-03-31T05:46:13.017Z,12.60
2023-03-31T05:48:41.531Z,12.77
2023-03-31T05:51:09.334Z,12.68
2023-03-31T05:53:37.168Z,12.68
2023-03-31T05:56:07.311Z,12.73
2023-03-31T05:58:36.774Z,12.78
2023-03-31T06:01:16.419Z,12.66
2023-03-31T06:03:47.006Z,12.73
2023-03-31T06:06:16.634Z,12.71
2023-03-31T06:08:46.050Z,12.73
2023-03-31T06:11:16.883Z,12.62
2023-03-31T06:13:45.063Z,12.74
2023-03-31T06:16:14.514Z,12.79
2023-03-31T06:18:42.851Z,12.88
2023-03-31T06:21:19.333Z,12.79
2023-03-31T06:23:47.336Z,12.76
2023-03-31T06:26:17.437Z,12.71
2023-03-31T06:28:46.688Z,12.76
2023-03-31T06:31:20.894Z,12.71
2023-03-31T06:33:49.242Z,12.76
2023-03-31T06:36:19.416Z,12.79
2023-03-31T06:38:47.958Z,12.81
2023-03-31T06:41:17.658Z,12.90
2023-03-31T06:43:45.569Z,13.15
2023-03-31T06:46:14.212Z,13.13
2023-03-31T06:48:42.180Z,13.22
2023-03-31T06:51:10.474Z,13.25
2023-03-31T06:53:38.278Z,13.24
2023-03-31T06:56:07.033Z,13.17
2023-03-31T06:58:35.042Z,13.16
2023-03-31T07:01:05.621Z,13.25
2023-03-31T07:03:34.591Z,13.31
2023-03-31T07:06:02.724Z,13.31
2023-03-31T07:08:30.585Z,13.38
2023-03-31T07:11:01.027Z,13.48
2023-03-31T07:13:29.234Z,13.49
2023-03-31T07:15:57.585Z,13.46
2023-03-31T07:18:34.883Z,13.41
2023-03-31T07:21:06.548Z,13.43
2023-03-31T07:23:36.155Z,13.33
2023-03-31T07:26:04.260Z,13.35
2023-03-31T07:28:33.055Z,13.40
2023-03-31T07:31:00.887Z,13.46
2023-03-31T07:33:28.780Z,13.50
2023-03-31T07:36:08.329Z,13.72
2023-03-31T07:38:39.948Z,13.72
2023-03-31T07:41:12.219Z,13.69
2023-03-31T07:43:40.298Z,13.61
2023-03-31T07:46:24.336Z,13.64
2023-03-31T07:48:52.840Z,13.67
2023-03-31T07:51:23.418Z,13.66
2023-03-31T07:53:52.838Z,13.54
2023-03-31T07:56:23.834Z,13.70
2023-03-31T07:58:55.204Z,13.73
2023-03-31T08:01:29.040Z,13.78
2023-03-31T08:03:57.516Z,13.88
2023-03-31T08:06:26.797Z,13.86
2023-03-31T08:08:54.778Z,13.94
2023-03-31T08:11:22.709Z,13.96
2023-03-31T08:13:50.744Z,13.81
2023-03-31T08:16:19.273Z,13.95
2023-03-31T08:18:47.184Z,13.99
2023-03-31T08:21:15.477Z,14.05
2023-03-31T08:23:43.350Z,14.12
2023-03-31T08:26:20.149Z,14.25
2023-03-31T08:28:49.490Z,14.30
2023-03-31T08:31:19.555Z,14.32
2023-03-31T08:33:48.285Z,14.23
2023-03-31T08:36:16.584Z,14.05
2023-03-31T08:38:49.829Z,14.14
2023-03-31T08:41:37.933Z,14.19
2023-03-31T08:44:14.600Z,14.42
2023-03-31T08:46:43.631Z,14.40
2023-03-31T08:49:16.903Z,14.61
2023-03-31T08:51:49.500Z,14.64
2023-03-31T08:54:52.913Z,14.58
2023-03-31T08:57:38.666Z,14.68
2023-03-31T09:00:13.758Z,14.32
2023-03-31T09:02:57.103Z,14.49
2023-03-31T09:05:59.399Z,14.34
2023-03-31T09:08:42.241Z,14.19
2023-03-31T09:11:30.089Z,14.25
2023-03-31T09:14:30.670Z,14.38
2023-03-31T09:17:22.154Z,14.46
2023-03-31T09:19:49.897Z,14.48
2023-03-31T09:22:28.033Z,14.40
2023-03-31T09:25:10.899Z,14.33
2023-03-31T09:27:42.762Z,14.32
2023-03-31T09:30:36.841Z,14.60
2023-03-31T09:33:11.645Z,14.78
2023-03-31T09:35:39.647Z,14.92
2023-03-31T09:38:10.502Z,14.99
2023-03-31T09:40:39.043Z,15.04
2023-03-31T09:43:13.852Z,15.05
2023-03-31T09:45:42.012Z,14.63
2023-03-31T09:48:18.598Z,15.08
2023-03-31T09:50:52.126Z,15.25
2023-03-31T09:53:46.389Z,15.35
2023-03-31T09:56:31.885Z,15.38
2023-03-31T09:59:04.139Z,15.59
2023-03-31T10:01:32.710Z,15.52
2023-03-31T10:04:03.201Z,15.47
2023-03-31T10:06:31.742Z,15.56
2023-03-31T10:09:05.723Z,15.64
2023-03-31T10:11:33.808Z,15.51
2023-03-31T10:14:05.371Z,15.73
2023-03-31T10:16:43.397Z,15.78
2023-03-31T10:19:18.810Z,15.96
2023-03-31T10:21:48.745Z,16.14
2023-03-31T10:24:20.160Z,16.40
2023-03-31T10:26:55.227Z,16.33
2023-03-31T10:29:33.061Z,16.84
2023-03-31T10:32:29.439Z,17.42
2023-03-31T10:34:59.841Z,17.32
2023-03-31T10:37:30.238Z,17.34
2023-03-31T10:40:06.096Z,17.31
2023-03-31T10:42:34.138Z,17.27
2023-03-31T10:45:36.381Z,16.84
2023-03-31T10:48:17.319Z,16.92
2023-03-31T10:50:45.384Z,16.56
2023-03-31T10:53:16.379Z,16.46
2023-03-31T10:56:06.616Z,16.63
2023-03-31T10:59:10.488Z,16.87
2023-03-31T11:01:38.254Z,16.95
2023-03-31T11:04:43.531Z,17.33
2023-03-31T11:07:49.667Z,17.48
2023-03-31T11:10:51.743Z,18.05
2023-03-31T11:13:47.146Z,18.66
2023-03-31T11:16:40.273Z,19.31
2023-03-31T11:19:24.134Z,19.85
2023-03-31T11:22:27.300Z,20.23
2023-03-31T11:24:55.236Z,20.23
2023-03-31T11:27:41.343Z,20.60
2023-03-31T11:30:35.082Z,20.98
2023-03-31T11:33:29.449Z,20.91
2023-03-31T11:36:20.191Z,20.55
2023-03-31T11:39:15.476Z,20.62
2023-03-31T11:42:09.821Z,21.14
2023-03-31T11:44:53.426Z,21.22
2023-03-31T11:47:29.234Z,21.97
2023-03-31T11:50:10.920Z,22.32
2023-03-31T11:52:57.411Z,20.95
2023-03-31T11:55:28.803Z,20.93
2023-03-31T11:58:04.616Z,21.37
2023-03-31T12:00:38.706Z,21.38
2023-03-31T12:03:13.528Z,22.08
2023-03-31T12:05:46.883Z,21.82
2023-03-31T12:08:43.923Z,22.71
2023-03-31T12:11:28.158Z,22.36
2023-03-31T12:14:34.630Z,22.43
2023-03-31T12:17:11.795Z,21.76
2023-03-31T12:20:02.461Z,21.25
2023-03-31T12:22:36.925Z,21.33
2023-03-31T12:25:05.717Z,20.72
2023-03-31T12:27:42.165Z,21.65
2023-03-31T12:30:35.039Z,21.33
2023-03-31T12:33:11.585Z,21.29
2023-03-31T12:35:55.650Z,20.58
2023-03-31T12:38:52.449Z,20.18
2023-03-31T12:41:42.961Z,19.76
2023-03-31T12:44:16.729Z,19.68
2023-03-31T12:47:18.791Z,19.66
2023-03-31T12:50:12.079Z,19.82
2023-03-31T12:52:46.581Z,19.72
2023-03-31T12:55:43.427Z,19.77
2023-03-31T12:58:23.337Z,19.31
2023-03-31T13:01:35.291Z,19.15
2023-03-31T13:04:21.730Z,18.84
2023-03-31T13:06:57.982Z,18.44
2023-03-31T13:09:31.832Z,18.70
2023-03-31T13:12:07.882Z,18.92
2023-03-31T13:14:41.123Z,18.64
2023-03-31T13:17:24.855Z,18.64
2023-03-31T13:19:55.212Z,18.93
2023-03-31T13:22:38.013Z,19.45
2023-03-31T13:25:31.195Z,19.20
2023-03-31T13:28:15.274Z,19.00
2023-03-31T13:30:43.131Z,19.10
2023-03-31T13:33:15.912Z,18.74
2023-03-31T13:35:55.464Z,18.66
2023-03-31T13:39:04.070Z,18.74
2023-03-31T13:41:53.925Z,18.47
2023-03-31T13:44:40.425Z,18.27
2023-03-31T13:47:36.134Z,18.31
2023-03-31T13:50:35.036Z,18.43
2023-03-31T13:53:40.612Z,18.58
2023-03-31T13:56:27.199Z,18.60
2023-03-31T13:59:31.995Z,18.63
2023-03-31T14:02:15.067Z,18.48
2023-03-31T14:05:09.429Z,18.58
2023-03-31T14:08:01.553Z,18.68
2023-03-31T14:10:33.712Z,18.57
2023-03-31T14:13:18.671Z,18.41
2023-03-31T14:15:54.430Z,18.32
2023-03-31T14:18:28.764Z,18.19
2023-03-31T14:21:03.627Z,18.12
2023-03-31T14:23:44.954Z,18.28
2023-03-31T14:26:50.392Z,18.25
2023-03-31T14:29:44.235Z,18.22
2023-03-31T14:32:15.086Z,17.98
2023-03-31T14:34:45.758Z,18.05
2023-03-31T14:37:18.251Z,18.29
2023-03-31T14:39:55.219Z,18.20
2023-03-31T14:42:41.501Z,18.06
2023-03-31T14:45:25.378Z,17.98
2023-03-31T14:48:12.121Z,17.98
2023-03-31T14:50:44.636Z,17.89
2023-03-31T14:53:17.711Z,18.04
2023-03-31T14:55:58.110Z,18.04
2023-03-31T14:58:35.313Z,18.08
2023-03-31T15:01:07.109Z,18.17
2023-03-31T15:03:41.789Z,17.94
2023-03-31T15:06:11.535Z,18.12
2023-03-31T15:08:39.952Z,17.87
2023-03-31T15:11:19.183Z,17.61
2023-03-31T15:14:03.390Z,17.55
2023-03-31T15:16:35.625Z,17.61
2023-03-31T15:19:14.201Z,17.63
2023-03-31T15:21:42.372Z,17.78
2023-03-31T15:24:21.595Z,17.91
2023-03-31T15:26:55.155Z,17.93
2023-03-31T15:29:37.254Z,17.69
2023-03-31T15:32:13.777Z,17.83
2023-03-31T15:34:43.902Z,17.67
2023-03-31T15:37:12.274Z,17.50
2023-03-31T15:39:46.388Z,17.56
2023-03-31T15:42:14.523Z,17.59
2023-03-31T15:45:23.606Z,17.34
2023-03-31T15:47:55.397Z,17.42
2023-03-31T15:50:24.971Z,17.51
2023-03-31T15:52:55.899Z,17.39
2023-03-31T15:55:23.809Z,17.45
2023-03-31T15:57:54.725Z,17.29
2023-03-31T16:00:34.487Z,17.39
2023-03-31T16:03:05.880Z,17.27
2023-03-31T16:06:01.105Z,17.27
2023-03-31T16:08:38.243Z,17.28
2023-03-31T16:11:13.656Z,17.31
2023-03-31T16:13:46.067Z,17.17
2023-03-31T16:16:18.058Z,17.13
2023-03-31T16:18:51.256Z,17.18
2023-03-31T16:21:22.476Z,17.16
2023-03-31T16:23:56.578Z,16.99
2023-03-31T16:26:28.027Z,17.12
2023-03-31T16:28:57.843Z,17.13
2023-03-31T16:31:34.649Z,17.02
2023-03-31T16:34:05.003Z,17.07
2023-03-31T16:36:33.218Z,17.10
2023-03-31T16:39:05.227Z,17.21
2023-03-31T16:41:34.765Z,17.09
2023-03-31T16:44:03.011Z,17.00
2023-03-31T16:46:30.946Z,16.84
2023-03-31T16:48:58.897Z,16.91
2023-03-31T16:51:26.780Z,16.93
2023-03-31T16:53:56.781Z,16.91
2023-03-31T16:56:27.304Z,16.84
2023-03-31T16:58:55.270Z,16.71
2023-03-31T17:01:23.279Z,16.55
2023-03-31T17:03:51.618Z,16.77
2023-03-31T17:06:19.458Z,16.88
2023-03-31T17:08:47.676Z,16.86
2023-03-31T17:11:16.182Z,16.75
2023-03-31T17:13:44.967Z,16.75
2023-03-31T17:16:22.020Z,16.80
2023-03-31T17:18:54.809Z,16.72
2023-03-31T17:21:23.859Z,16.71
2023-03-31T17:23:51.802Z,16.55
2023-03-31T17:26:19.662Z,16.44
2023-03-31T17:28:47.528Z,16.50
2023-03-31T17:31:18.230Z,16.31
2023-03-31T17:33:46.866Z,16.34
2023-03-31T17:36:15.887Z,16.24
2023-03-31T17:38:45.252Z,16.14
2023-03-31T17:41:14.340Z,15.98
2023-03-31T17:43:47.180Z,15.98
2023-03-31T17:46:15.742Z,16.01
2023-03-31T17:48:44.941Z,15.91
2023-03-31T17:51:15.944Z,15.90
2023-03-31T17:53:45.829Z,15.91
2023-03-31T17:56:15.689Z,15.85
2023-03-31T17:58:43.904Z,15.73
2023-03-31T18:01:12.867Z,15.59
2023-03-31T18:03:41.424Z,15.45
2023-03-31T18:06:11.907Z,15.46
2023-03-31T18:08:41.946Z,15.56
2023-03-31T18:11:13.475Z,15.51
2023-03-31T18:13:41.823Z,15.41
2023-03-31T18:16:11.188Z,15.40
2023-03-31T18:18:39.639Z,15.46
2023-03-31T18:21:10.441Z,15.44
2023-03-31T18:23:38.504Z,15.30
2023-03-31T18:26:11.608Z,15.39
2023-03-31T18:28:41.065Z,15.48
2023-03-31T18:31:10.215Z,15.46
2023-03-31T18:33:39.013Z,15.41
2023-03-31T18:36:14.398Z,15.49
2023-03-31T18:38:42.901Z,15.31
2023-03-31T18:41:12.849Z,15.31
2023-03-31T18:43:41.446Z,15.20
2023-03-31T18:46:11.134Z,15.17
2023-03-31T18:48:39.431Z,14.99
2023-03-31T18:51:07.424Z,14.90
2023-03-31T18:53:36.184Z,14.87
2023-03-31T18:56:04.650Z,14.79
2023-03-31T18:58:32.654Z,14.70
2023-03-31T19:01:03.628Z,14.65
2023-03-31T19:03:31.639Z,14.55
2023-03-31T19:06:12.129Z,14.46
2023-03-31T19:08:40.716Z,14.54
2023-03-31T19:11:14.032Z,14.35
2023-03-31T19:13:43.302Z,14.42
2023-03-31T19:16:12.754Z,14.50
2023-03-31T19:18:41.452Z,14.55
2023-03-31T19:21:10.615Z,14.53
2023-03-31T19:23:38.886Z,14.35
2023-03-31T19:26:07.460Z,14.36
2023-03-31T19:28:35.413Z,14.51
2023-03-31T19:31:04.952Z,14.40
2023-03-31T19:33:33.056Z,14.58
2023-03-31T19:36:01.035Z,14.59
2023-03-31T19:38:32.384Z,14.47
2023-03-31T19:41:00.451Z,14.35
2023-03-31T19:43:29.600Z,14.42
2023-03-31T19:45:59.937Z,14.38
2023-03-31T19:48:30.447Z,14.33
2023-03-31T19:51:00.827Z,14.32
2023-03-31T19:53:28.855Z,14.34
2023-03-31T19:56:04.376Z,14.45
2023-03-31T19:58:35.380Z,14.37
2023-03-31T20:01:06.811Z,14.25
2023-03-31T20:03:35.294Z,14.25
2023-03-31T20:06:05.020Z,14.12
2023-03-31T20:08:34.571Z,14.07
2023-03-31T20:11:08.054Z,13.88
2023-03-31T20:13:36.322Z,13.84
2023-03-31T20:16:08.014Z,13.88
2023-03-31T20:18:37.304Z,13.83
2023-03-31T20:21:15.790Z,13.97
2023-03-31T20:23:45.069Z,13.83
2023-03-31T20:26:16.092Z,13.90
2023-03-31T20:28:45.158Z,13.87
2023-03-31T20:31:16.198Z,13.89
2023-03-31T20:33:46.236Z,13.91
2023-03-31T20:36:16.718Z,13.87
2023-03-31T20:38:46.592Z,13.98
2023-03-31T20:41:15.898Z,13.87
2023-03-31T20:43:44.134Z,13.62
2023-03-31T20:46:12.502Z,13.52
2023-03-31T20:48:43.152Z,13.56
2023-03-31T20:51:12.899Z,13.49
2023-03-31T20:53:47.806Z,13.55
2023-03-31T20:56:18.761Z,13.44
2023-03-31T20:58:51.037Z,13.40
2023-03-31T21:01:19.593Z,13.47
2023-03-31T21:03:48.080Z,13.49
2023-03-31T21:06:16.697Z,13.46
2023-03-31T21:08:46.825Z,13.31
2023-03-31T21:11:14.739Z,13.40
2023-03-31T21:13:45.168Z,13.44
2023-03-31T21:16:13.053Z,13.48
2023-03-31T21:18:41.211Z,13.49
2023-03-31T21:21:16.052Z,13.70
2023-03-31T21:23:43.891Z,13.67
2023-03-31T21:26:15.877Z,13.81
2023-03-31T21:28:44.433Z,13.71
2023-03-31T21:31:18.243Z,13.60
2023-03-31T21:33:47.290Z,13.47
2023-03-31T21:36:18.724Z,13.43
2023-03-31T21:38:46.999Z,13.37
2023-03-31T21:41:20.995Z,13.40
2023-03-31T21:43:49.214Z,13.26
2023-03-31T21:46:21.064Z,13.24
2023-03-31T21:48:49.931Z,13.15
2023-03-31T21:51:22.122Z,13.22
2023-03-31T21:53:53.438Z,13.05
2023-03-31T21:56:23.269Z,13.02
2023-03-31T21:58:51.436Z,12.95
2023-03-31T22:01:20.795Z,12.97
2023-03-31T22:03:49.221Z,12.93
2023-03-31T22:06:17.122Z,13.07
2023-03-31T22:08:45.775Z,12.98
2023-03-31T22:11:14.723Z,12.94
2023-03-31T22:13:43.382Z,12.87
2023-03-31T22:16:20.840Z,12.71
2023-03-31T22:18:50.513Z,12.79
2023-03-31T22:21:26.218Z,12.78
2023-03-31T22:23:56.776Z,12.67
2023-03-31T22:26:27.323Z,12.60
2023-03-31T22:28:56.894Z,12.71
2023-03-31T22:31:27.171Z,12.64
2023-03-31T22:33:55.118Z,12.65
2023-03-31T22:36:23.068Z,12.75
2023-03-31T22:38:51.116Z,12.74
2023-03-31T22:41:19.081Z,12.78
2023-03-31T22:43:46.967Z,12.71
2023-03-31T22:46:15.272Z,12.78
2023-03-31T22:48:44.280Z,12.75
2023-03-31T22:51:12.501Z,12.69
2023-03-31T22:53:40.662Z,12.73
2023-03-31T22:56:12.123Z,12.84
2023-03-31T22:58:40.124Z,12.48
2023-03-31T23:01:10.131Z,12.40
2023-03-31T23:03:38.223Z,12.31
2023-03-31T23:06:06.753Z,12.34
2023-03-31T23:08:36.016Z,12.38
2023-03-31T23:11:06.556Z,12.29
2023-03-31T23:13:34.917Z,12.19
2023-03-31T23:16:07.763Z,12.06
2023-03-31T23:18:36.437Z,12.12
2023-03-31T23:21:06.337Z,12.11
2023-03-31T23:23:34.393Z,11.93
2023-03-31T23:26:04.495Z,11.89
2023-03-31T23:28:34.808Z,11.88
2023-03-31T23:31:03.460Z,11.89
2023-03-31T23:33:31.608Z,11.97
2023-03-31T23:36:05.002Z,11.95
2023-03-31T23:38:33.056Z,11.85
2023-03-31T23:41:01.936Z,11.95
2023-03-31T23:43:30.467Z,11.95
2023-03-31T23:45:58.474Z,11.94
2023-03-31T23:48:26.680Z,11.93
2023-03-31T23:50:54.576Z,12.01
2023-03-31T23:53:22.781Z,11.92
2023-03-31T23:56:05.455Z,11.93
2023-03-31T23:58:33.996Z,11.96
